sensor_id;sensor_type;location;lat;lon;timestamp;pressure;altitude;pressure_sealevel;temperature;humidity
35918;BME280;22011;59.912;30.300;2023-02-26T00:01:40;99986.16;;;-1.47;65.96
35918;BME280;22011;59.912;30.300;2023-02-26T00:04:08;99995.06;;;-1.49;66.34
35918;BME280;22011;59.912;30.300;2023-02-26T00:06:38;99998.50;;;-1.49;66.70
35918;BME280;22011;59.912;30.300;2023-02-26T00:09:18;99995.16;;;-1.51;65.99
35918;BME280;22011;59.912;30.300;2023-02-26T00:11:46;99996.00;;;-1.50;66.10
35918;BME280;22011;59.912;30.300;2023-02-26T00:14:16;99990.03;;;-1.52;65.63
35918;BME280;22011;59.912;30.300;2023-02-26T00:16:46;99996.84;;;-1.50;65.45
35918;BME280;22011;59.912;30.300;2023-02-26T00:19:17;100003.41;;;-1.57;65.45
35918;BME280;22011;59.912;30.300;2023-02-26T00:21:45;99995.78;;;-1.60;65.73
35918;BME280;22011;59.912;30.300;2023-02-26T00:24:13;99982.75;;;-1.60;65.93
35918;BME280;22011;59.912;30.300;2023-02-26T00:26:40;99984.41;;;-1.59;65.88
35918;BME280;22011;59.912;30.300;2023-02-26T00:29:08;99989.31;;;-1.54;66.23
35918;BME280;22011;59.912;30.300;2023-02-26T00:31:38;99987.44;;;-1.52;67.24
35918;BME280;22011;59.912;30.300;2023-02-26T00:34:10;99989.50;;;-1.45;65.89
35918;BME280;22011;59.912;30.300;2023-02-26T00:36:42;99992.66;;;-1.52;66.06
35918;BME280;22011;59.912;30.300;2023-02-26T00:39:21;100003.09;;;-1.52;66.09
35918;BME280;22011;59.912;30.300;2023-02-26T00:41:56;99998.31;;;-1.58;65.77
35918;BME280;22011;59.912;30.300;2023-02-26T00:44:24;100000.09;;;-1.59;66.13
35918;BME280;22011;59.912;30.300;2023-02-26T00:46:55;100002.69;;;-1.59;67.11
35918;BME280;22011;59.912;30.300;2023-02-26T00:49:30;100001.34;;;-1.65;66.83
35918;BME280;22011;59.912;30.300;2023-02-26T00:52:05;99996.00;;;-1.63;67.06
35918;BME280;22011;59.912;30.300;2023-02-26T00:54:36;99995.78;;;-1.60;66.09
35918;BME280;22011;59.912;30.300;2023-02-26T00:57:04;100005.19;;;-1.57;66.89
35918;BME280;22011;59.912;30.300;2023-02-26T00:59:31;99999.03;;;-1.56;66.73
35918;BME280;22011;59.912;30.300;2023-02-26T01:02:02;100000.59;;;-1.54;66.54
35918;BME280;22011;59.912;30.300;2023-02-26T01:04:30;100002.06;;;-1.50;65.80
35918;BME280;22011;59.912;30.300;2023-02-26T01:06:58;99996.31;;;-1.55;66.06
35918;BME280;22011;59.912;30.300;2023-02-26T01:09:27;99999.66;;;-1.53;65.76
35918;BME280;22011;59.912;30.300;2023-02-26T01:11:57;100001.00;;;-1.47;66.09
35918;BME280;22011;59.912;30.300;2023-02-26T01:14:27;100008.63;;;-1.44;66.42
35918;BME280;22011;59.912;30.300;2023-02-26T01:17:00;100011.13;;;-1.43;65.89
35918;BME280;22011;59.912;30.300;2023-02-26T01:19:33;100008.53;;;-1.43;66.79
35918;BME280;22011;59.912;30.300;2023-02-26T01:22:07;100004.97;;;-1.42;65.66
35918;BME280;22011;59.912;30.300;2023-02-26T01:24:36;100001.13;;;-1.49;65.81
35918;BME280;22011;59.912;30.300;2023-02-26T01:27:04;100007.72;;;-1.56;66.04
35918;BME280;22011;59.912;30.300;2023-02-26T01:29:33;100004.56;;;-1.61;66.36
35918;BME280;22011;59.912;30.300;2023-02-26T01:32:06;100013.97;;;-1.58;66.90
35918;BME280;22011;59.912;30.300;2023-02-26T01:34:41;100011.25;;;-1.57;66.49
35918;BME280;22011;59.912;30.300;2023-02-26T01:37:20;100011.88;;;-1.53;67.21
35918;BME280;22011;59.912;30.300;2023-02-26T01:40:02;99992.44;;;-1.49;66.11
35918;BME280;22011;59.912;30.300;2023-02-26T01:42:35;100004.16;;;-1.55;66.47
35918;BME280;22011;59.912;30.300;2023-02-26T01:45:11;100012.72;;;-1.53;67.07
35918;BME280;22011;59.912;30.300;2023-02-26T01:47:47;100022.34;;;-1.53;67.28
35918;BME280;22011;59.912;30.300;2023-02-26T01:50:20;100018.16;;;-1.56;66.58
35918;BME280;22011;59.912;30.300;2023-02-26T01:53:15;100019.19;;;-1.46;66.79
35918;BME280;22011;59.912;30.300;2023-02-26T01:55:46;100002.88;;;-1.49;66.38
35918;BME280;22011;59.912;30.300;2023-02-26T01:58:15;100001.53;;;-1.55;65.98
35918;BME280;22011;59.912;30.300;2023-02-26T02:00:43;99999.75;;;-1.54;66.73
35918;BME280;22011;59.912;30.300;2023-02-26T02:03:11;100002.06;;;-1.50;66.07
35918;BME280;22011;59.912;30.300;2023-02-26T02:05:43;100010.31;;;-1.43;66.73
35918;BME280;22011;59.912;30.300;2023-02-26T02:08:13;100006.66;;;-1.53;65.89
35918;BME280;22011;59.912;30.300;2023-02-26T02:10:43;99998.94;;;-1.55;65.89
35918;BME280;22011;59.912;30.300;2023-02-26T02:13:21;100005.94;;;-1.55;66.64
35918;BME280;22011;59.912;30.300;2023-02-26T02:16:01;99999.03;;;-1.56;67.29
35918;BME280;22011;59.912;30.300;2023-02-26T02:18:39;100004.91;;;-1.66;67.12
35918;BME280;22011;59.912;30.300;2023-02-26T02:24:30;99999.66;;;-1.66;67.80
35918;BME280;22011;59.912;30.300;2023-02-26T02:27:07;100004.06;;;-1.66;67.28
35918;BME280;22011;59.912;30.300;2023-02-26T02:32:43;100006.16;;;-1.58;67.71
35918;BME280;22011;59.912;30.300;2023-02-26T02:35:17;100017.75;;;-1.62;67.60
35918;BME280;22011;59.912;30.300;2023-02-26T02:37:52;100018.78;;;-1.65;67.45
35918;BME280;22011;59.912;30.300;2023-02-26T02:40:22;100011.38;;;-1.71;67.63
35918;BME280;22011;59.912;30.300;2023-02-26T02:42:57;100000.72;;;-1.68;67.67
35918;BME280;22011;59.912;30.300;2023-02-26T02:45:28;100006.16;;;-1.71;67.20
35918;BME280;22011;59.912;30.300;2023-02-26T02:48:02;100007.19;;;-1.74;67.99
35918;BME280;22011;59.912;30.300;2023-02-26T02:50:34;100008.13;;;-1.75;68.26
35918;BME280;22011;59.912;30.300;2023-02-26T02:53:08;100010.34;;;-1.69;67.07
35918;BME280;22011;59.912;30.300;2023-02-26T02:55:42;100014.81;;;-1.71;67.34
35918;BME280;22011;59.912;30.300;2023-02-26T02:58:13;99995.59;;;-1.70;67.66
35918;BME280;22011;59.912;30.300;2023-02-26T03:00:47;100003.13;;;-1.65;66.69
35918;BME280;22011;59.912;30.300;2023-02-26T03:03:21;100007.91;;;-1.59;67.35
35918;BME280;22011;59.912;30.300;2023-02-26T03:05:51;100005.09;;;-1.69;66.54
35918;BME280;22011;59.912;30.300;2023-02-26T03:08:23;100011.06;;;-1.67;66.82
35918;BME280;22011;59.912;30.300;2023-02-26T03:10:52;100015.66;;;-1.70;66.60
35918;BME280;22011;59.912;30.300;2023-02-26T03:13:23;100012.94;;;-1.69;66.71
35918;BME280;22011;59.912;30.300;2023-02-26T03:16:08;100013.56;;;-1.65;66.80
35918;BME280;22011;59.912;30.300;2023-02-26T03:18:49;100018.06;;;-1.67;67.38
35918;BME280;22011;59.912;30.300;2023-02-26T03:21:22;100030.50;;;-1.71;67.38
35918;BME280;22011;59.912;30.300;2023-02-26T03:23:57;100021.31;;;-1.76;67.23
35918;BME280;22011;59.912;30.300;2023-02-26T03:26:31;100018.16;;;-1.81;67.28
35918;BME280;22011;59.912;30.300;2023-02-26T03:29:06;100021.00;;;-1.84;67.63
35918;BME280;22011;59.912;30.300;2023-02-26T03:31:38;100017.97;;;-1.91;67.31
35918;BME280;22011;59.912;30.300;2023-02-26T03:34:12;100029.66;;;-1.97;67.79
35918;BME280;22011;59.912;30.300;2023-02-26T03:36:46;100027.34;;;-2.01;67.20
35918;BME280;22011;59.912;30.300;2023-02-26T03:39:23;100029.66;;;-1.97;67.82
35918;BME280;22011;59.912;30.300;2023-02-26T03:41:59;100030.28;;;-1.93;67.49
35918;BME280;22011;59.912;30.300;2023-02-26T03:44:38;100028.19;;;-1.88;67.20
35918;BME280;22011;59.912;30.300;2023-02-26T03:47:12;100022.66;;;-1.83;66.11
35918;BME280;22011;59.912;30.300;2023-02-26T03:49:49;100019.94;;;-1.82;66.57
35918;BME280;22011;59.912;30.300;2023-02-26T03:52:20;100017.22;;;-1.93;67.21
35918;BME280;22011;59.912;30.300;2023-02-26T03:55:17;100032.16;;;-1.95;67.22
35918;BME280;22011;59.912;30.300;2023-02-26T03:58:01;100026.72;;;-1.92;66.53
35918;BME280;22011;59.912;30.300;2023-02-26T04:00:49;100015.25;;;-1.89;66.71
35918;BME280;22011;59.912;30.300;2023-02-26T04:03:26;100006.25;;;-1.85;67.05
35918;BME280;22011;59.912;30.300;2023-02-26T04:05:58;100023.81;;;-1.87;67.49
35918;BME280;22011;59.912;30.300;2023-02-26T04:08:27;100015.97;;;-1.87;67.31
35918;BME280;22011;59.912;30.300;2023-02-26T04:10:57;100015.66;;;-1.83;66.84
35918;BME280;22011;59.912;30.300;2023-02-26T04:13:25;100016.50;;;-1.82;66.09
35918;BME280;22011;59.912;30.300;2023-02-26T04:15:53;100012.84;;;-1.80;65.92
35918;BME280;22011;59.912;30.300;2023-02-26T04:18:21;100019.09;;;-1.82;65.47
35918;BME280;22011;59.912;30.300;2023-02-26T04:20:49;100012.44;;;-1.86;65.83
35918;BME280;22011;59.912;30.300;2023-02-26T04:23:18;100013.69;;;-1.79;66.59
35918;BME280;22011;59.912;30.300;2023-02-26T04:25:46;100014.19;;;-1.87;66.63
35918;BME280;22011;59.912;30.300;2023-02-26T04:28:15;100009.81;;;-1.86;66.00
35918;BME280;22011;59.912;30.300;2023-02-26T04:30:43;100008.34;;;-1.90;66.24
35918;BME280;22011;59.912;30.300;2023-02-26T04:33:13;100005.53;;;-1.87;66.17
35918;BME280;22011;59.912;30.300;2023-02-26T04:35:41;100005.31;;;-1.84;65.70
35918;BME280;22011;59.912;30.300;2023-02-26T04:38:09;100007.31;;;-1.88;65.98
35918;BME280;22011;59.912;30.300;2023-02-26T04:40:38;100014.00;;;-1.84;65.50
35918;BME280;22011;59.912;30.300;2023-02-26T04:43:08;100004.28;;;-1.82;65.11
35918;BME280;22011;59.912;30.300;2023-02-26T04:45:44;100019.00;;;-1.81;65.95
35918;BME280;22011;59.912;30.300;2023-02-26T04:48:12;100016.50;;;-1.82;65.68
35918;BME280;22011;59.912;30.300;2023-02-26T04:50:39;100014.09;;;-1.85;66.84
35918;BME280;22011;59.912;30.300;2023-02-26T04:53:07;100030.47;;;-1.96;66.30
35918;BME280;22011;59.912;30.300;2023-02-26T04:55:38;100017.97;;;-1.91;65.62
35918;BME280;22011;59.912;30.300;2023-02-26T04:58:06;100029.34;;;-1.92;65.92
35918;BME280;22011;59.912;30.300;2023-02-26T05:00:35;100024.53;;;-1.98;66.01
35918;BME280;22011;59.912;30.300;2023-02-26T05:03:03;100029.66;;;-1.97;66.01
35918;BME280;22011;59.912;30.300;2023-02-26T05:05:31;100041.66;;;-1.94;65.50
35918;BME280;22011;59.912;30.300;2023-02-26T05:07:58;100029.34;;;-1.92;65.78
35918;BME280;22011;59.912;30.300;2023-02-26T05:10:26;100032.88;;;-1.93;65.73
35918;BME280;22011;59.912;30.300;2023-02-26T05:12:55;100028.59;;;-1.94;65.67
35918;BME280;22011;59.912;30.300;2023-02-26T05:15:22;100014.19;;;-2.00;66.59
35918;BME280;22011;59.912;30.300;2023-02-26T05:17:50;100025.56;;;-2.01;65.82
35918;BME280;22011;59.912;30.300;2023-02-26T05:20:20;100032.88;;;-1.93;65.36
35918;BME280;22011;59.912;30.300;2023-02-26T05:22:48;100031.94;;;-1.92;65.20
35918;BME280;22011;59.912;30.300;2023-02-26T05:25:16;100029.34;;;-1.92;64.81
35918;BME280;22011;59.912;30.300;2023-02-26T05:27:45;100024.31;;;-1.95;65.22
35918;BME280;22011;59.912;30.300;2023-02-26T05:30:15;100029.44;;;-1.93;65.52
35918;BME280;22011;59.912;30.300;2023-02-26T05:32:43;100023.19;;;-1.78;65.39
35918;BME280;22011;59.912;30.300;2023-02-26T05:35:11;100030.69;;;-1.99;66.04
35918;BME280;22011;59.912;30.300;2023-02-26T05:37:38;100027.16;;;-1.98;65.83
35918;BME280;22011;59.912;30.300;2023-02-26T05:40:08;100031.53;;;-1.99;65.65
35918;BME280;22011;59.912;30.300;2023-02-26T05:42:37;100022.75;;;-1.98;65.71
35918;BME280;22011;59.912;30.300;2023-02-26T05:45:06;100021.50;;;-1.92;65.38
35918;BME280;22011;59.912;30.300;2023-02-26T05:47:35;100017.75;;;-1.88;65.58
35918;BME280;22011;59.912;30.300;2023-02-26T05:50:04;100046.25;;;-1.85;65.73
35918;BME280;22011;59.912;30.300;2023-02-26T05:52:32;100026.31;;;-1.86;65.93
35918;BME280;22011;59.912;30.300;2023-02-26T05:55:01;100033.41;;;-1.88;65.50
35918;BME280;22011;59.912;30.300;2023-02-26T05:57:28;100018.69;;;-1.89;64.82
35918;BME280;22011;59.912;30.300;2023-02-26T05:59:56;100021.09;;;-1.86;65.51
35918;BME280;22011;59.912;30.300;2023-02-26T06:02:23;100022.13;;;-1.88;65.63
35918;BME280;22011;59.912;30.300;2023-02-26T06:04:52;100035.72;;;-1.83;65.63
35918;BME280;22011;59.912;30.300;2023-02-26T06:07:20;100037.38;;;-1.82;65.51
35918;BME280;22011;59.912;30.300;2023-02-26T06:09:49;100061.72;;;-1.82;65.29
35918;BME280;22011;59.912;30.300;2023-02-26T06:12:17;100049.59;;;-1.83;64.55
35918;BME280;22011;59.912;30.300;2023-02-26T06:14:45;100060.78;;;-1.81;64.90
35918;BME280;22011;59.912;30.300;2023-02-26T06:17:12;100066.63;;;-1.77;64.52
35918;BME280;22011;59.912;30.300;2023-02-26T06:19:40;100067.47;;;-1.77;63.66
35918;BME280;22011;59.912;30.300;2023-02-26T06:22:09;100070.41;;;-1.81;64.59
35918;BME280;22011;59.912;30.300;2023-02-26T06:24:36;100081.16;;;-1.86;65.37
35918;BME280;22011;59.912;30.300;2023-02-26T06:27:04;100066.94;;;-1.82;64.44
35918;BME280;22011;59.912;30.300;2023-02-26T06:29:31;100077.38;;;-1.82;64.85
35918;BME280;22011;59.912;30.300;2023-02-26T06:31:59;100080.41;;;-1.88;64.30
35918;BME280;22011;59.912;30.300;2023-02-26T06:34:27;100078.75;;;-1.89;65.38
35918;BME280;22011;59.912;30.300;2023-02-26T06:36:54;100077.06;;;-1.90;65.17
35918;BME280;22011;59.912;30.300;2023-02-26T06:39:23;100061.31;;;-1.88;65.66
35918;BME280;22011;59.912;30.300;2023-02-26T06:41:51;100071.53;;;-1.98;65.13
35918;BME280;22011;59.912;30.300;2023-02-26T06:44:18;100059.63;;;-2.02;65.01
35918;BME280;22011;59.912;30.300;2023-02-26T06:46:46;100073.28;;;-1.99;64.71
35918;BME280;22011;59.912;30.300;2023-02-26T06:49:13;100067.25;;;-1.99;65.02
35918;BME280;22011;59.912;30.300;2023-02-26T06:51:41;100086.44;;;-2.00;65.12
35918;BME280;22011;59.912;30.300;2023-02-26T06:54:08;100071.72;;;-2.01;65.67
35918;BME280;22011;59.912;30.300;2023-02-26T06:56:37;100072.88;;;-1.92;65.40
35918;BME280;22011;59.912;30.300;2023-02-26T06:59:05;100075.28;;;-1.89;65.09
35918;BME280;22011;59.912;30.300;2023-02-26T07:01:32;100074.47;;;-1.90;65.60
35918;BME280;22011;59.912;30.300;2023-02-26T07:04:00;100089.19;;;-1.89;64.84
35918;BME280;22011;59.912;30.300;2023-02-26T07:06:27;100081.44;;;-1.90;65.43
35918;BME280;22011;59.912;30.300;2023-02-26T07:08:55;100081.56;;;-1.92;64.68
35918;BME280;22011;59.912;30.300;2023-02-26T07:11:23;100091.91;;;-1.90;64.69
35918;BME280;22011;59.912;30.300;2023-02-26T07:13:52;100087.31;;;-1.87;65.22
35918;BME280;22011;59.912;30.300;2023-02-26T07:16:20;100078.84;;;-1.90;64.05
35918;BME280;22011;59.912;30.300;2023-02-26T07:18:47;100073.00;;;-1.94;64.43
35918;BME280;22011;59.912;30.300;2023-02-26T07:21:15;100087.72;;;-1.93;64.30
35918;BME280;22011;59.912;30.300;2023-02-26T07:23:42;100077.28;;;-1.93;65.24
35918;BME280;22011;59.912;30.300;2023-02-26T07:26:10;100065.78;;;-1.90;65.16
35918;BME280;22011;59.912;30.300;2023-02-26T07:28:37;100096.25;;;-2.04;65.08
35918;BME280;22011;59.912;30.300;2023-02-26T07:31:06;100092.41;;;-2.11;65.62
35918;BME280;22011;59.912;30.300;2023-02-26T07:33:34;100086.47;;;-2.13;65.97
35918;BME280;22011;59.912;30.300;2023-02-26T07:36:04;100092.91;;;-2.06;66.16
35918;BME280;22011;59.912;30.300;2023-02-26T07:38:31;100091.66;;;-2.00;65.82
35918;BME280;22011;59.912;30.300;2023-02-26T07:40:59;100109.09;;;-2.01;65.29
35918;BME280;22011;59.912;30.300;2023-02-26T07:43:26;100101.59;;;-2.05;65.22
35918;BME280;22011;59.912;30.300;2023-02-26T07:45:54;100104.81;;;-2.02;65.63
35918;BME280;22011;59.912;30.300;2023-02-26T07:48:23;100114.03;;;-1.96;65.77
35918;BME280;22011;59.912;30.300;2023-02-26T07:50:51;100093.34;;;-1.99;65.48
35918;BME280;22011;59.912;30.300;2023-02-26T07:53:19;100100.75;;;-2.06;66.41
35918;BME280;22011;59.912;30.300;2023-02-26T07:55:47;100113.69;;;-2.04;66.28
35918;BME280;22011;59.912;30.300;2023-02-26T07:58:14;100105.88;;;-2.04;65.04
35918;BME280;22011;59.912;30.300;2023-02-26T08:00:42;100101.59;;;-2.05;65.22
35918;BME280;22011;59.912;30.300;2023-02-26T08:03:09;100116.00;;;-2.12;65.15
35918;BME280;22011;59.912;30.300;2023-02-26T08:05:38;100101.91;;;-2.10;64.77
35918;BME280;22011;59.912;30.300;2023-02-26T08:08:06;100108.38;;;-2.15;65.50
35918;BME280;22011;59.912;30.300;2023-02-26T08:10:33;100109.66;;;-2.08;65.46
35918;BME280;22011;59.912;30.300;2023-02-26T08:13:01;100108.19;;;-2.12;64.52
35918;BME280;22011;59.912;30.300;2023-02-26T08:15:28;100113.28;;;-2.11;64.82
35918;BME280;22011;59.912;30.300;2023-02-26T08:17:56;100109.09;;;-2.13;64.99
35918;BME280;22011;59.912;30.300;2023-02-26T08:20:23;100108.19;;;-2.12;65.43
35918;BME280;22011;59.912;30.300;2023-02-26T08:22:52;100123.84;;;-2.12;65.39
35918;BME280;22011;59.912;30.300;2023-02-26T08:25:20;100115.25;;;-2.14;65.97
35918;BME280;22011;59.912;30.300;2023-02-26T08:27:49;100105.22;;;-2.08;66.03
35918;BME280;22011;59.912;30.300;2023-02-26T08:30:17;100122.47;;;-2.05;64.81
35918;BME280;22011;59.912;30.300;2023-02-26T08:32:45;100128.63;;;-2.06;65.74
35918;BME280;22011;59.912;30.300;2023-02-26T08:35:15;100142.41;;;-2.04;65.39
35918;BME280;22011;59.912;30.300;2023-02-26T08:37:42;100126.75;;;-2.04;65.10
35918;BME280;22011;59.912;30.300;2023-02-26T08:40:12;100120.59;;;-2.03;64.88
35918;BME280;22011;59.912;30.300;2023-02-26T08:42:40;100126.00;;;-2.06;64.70
35918;BME280;22011;59.912;30.300;2023-02-26T08:45:09;100116.09;;;-2.01;65.07
35918;BME280;22011;59.912;30.300;2023-02-26T08:47:37;100127.38;;;-2.01;64.01
35918;BME280;22011;59.912;30.300;2023-02-26T08:50:07;100134.38;;;-2.01;65.02
35918;BME280;22011;59.912;30.300;2023-02-26T08:52:35;100135.13;;;-1.99;64.53
35918;BME280;22011;59.912;30.300;2023-02-26T08:55:04;100123.22;;;-1.90;64.04
35918;BME280;22011;59.912;30.300;2023-02-26T08:57:33;100123.84;;;-1.87;64.44
35918;BME280;22011;59.912;30.300;2023-02-26T09:00:00;100137.22;;;-1.91;63.34
35918;BME280;22011;59.912;30.300;2023-02-26T09:02:30;100131.16;;;-1.92;63.57
35918;BME280;22011;59.912;30.300;2023-02-26T09:04:58;100129.50;;;-1.93;63.89
35918;BME280;22011;59.912;30.300;2023-02-26T09:07:25;100139.94;;;-1.93;63.95
35918;BME280;22011;59.912;30.300;2023-02-26T09:09:53;100132.09;;;-1.93;63.89
35918;BME280;22011;59.912;30.300;2023-02-26T09:12:20;100137.84;;;-1.88;63.78
35918;BME280;22011;59.912;30.300;2023-02-26T09:14:49;100136.50;;;-1.81;63.79
35918;BME280;22011;59.912;30.300;2023-02-26T09:17:17;100149.38;;;-1.78;63.47
35918;BME280;22011;59.912;30.300;2023-02-26T09:19:44;100136.63;;;-1.82;63.41
35918;BME280;22011;59.912;30.300;2023-02-26T09:22:12;100136.19;;;-1.89;63.45
35918;BME280;22011;59.912;30.300;2023-02-26T09:24:39;100133.47;;;-1.87;63.75
35918;BME280;22011;59.912;30.300;2023-02-26T09:27:07;100146.63;;;-1.89;63.53
35918;BME280;22011;59.912;30.300;2023-02-26T09:29:34;100136.50;;;-1.81;63.32
35918;BME280;22011;59.912;30.300;2023-02-26T09:32:04;100145.81;;;-1.77;63.33
35918;BME280;22011;59.912;30.300;2023-02-26T09:34:33;100157.72;;;-1.73;62.97
35918;BME280;22011;59.912;30.300;2023-02-26T09:37:02;100151.25;;;-1.67;63.23
35918;BME280;22011;59.912;30.300;2023-02-26T09:39:30;100154.84;;;-1.55;62.70
35918;BME280;22011;59.912;30.300;2023-02-26T09:42:01;100152.75;;;-1.50;62.06
35918;BME280;22011;59.912;30.300;2023-02-26T09:44:36;100163.19;;;-1.50;62.01
35918;BME280;22011;59.912;30.300;2023-02-26T09:47:12;100162.25;;;-1.49;62.64
35918;BME280;22011;59.912;30.300;2023-02-26T09:49:48;100173.25;;;-1.44;62.72
35918;BME280;22011;59.912;30.300;2023-02-26T09:52:23;100165.94;;;-1.39;61.73
35918;BME280;22011;59.912;30.300;2023-02-26T09:54:55;100173.25;;;-1.44;62.29
35918;BME280;22011;59.912;30.300;2023-02-26T09:57:29;100182.22;;;-1.48;62.70
35918;BME280;22011;59.912;30.300;2023-02-26T09:59:58;100185.00;;;-1.64;62.29
35918;BME280;22011;59.912;30.300;2023-02-26T10:02:35;100175.19;;;-1.60;62.19
35918;BME280;22011;59.912;30.300;2023-02-26T10:05:15;100185.66;;;-1.60;62.11
35918;BME280;22011;59.912;30.300;2023-02-26T10:07:50;100175.09;;;-1.59;62.07
35918;BME280;22011;59.912;30.300;2023-02-26T10:10:28;100177.59;;;-1.57;62.97
35918;BME280;22011;59.912;30.300;2023-02-26T10:12:59;100186.38;;;-1.58;62.30
35918;BME280;22011;59.912;30.300;2023-02-26T10:15:31;100176.66;;;-1.56;62.27
35918;BME280;22011;59.912;30.300;2023-02-26T10:18:08;100173.44;;;-1.60;62.74
35918;BME280;22011;59.912;30.300;2023-02-26T10:20:43;100182.50;;;-1.66;62.64
35918;BME280;22011;59.912;30.300;2023-02-26T10:23:22;100203.19;;;-1.62;63.34
35918;BME280;22011;59.912;30.300;2023-02-26T10:25:56;100197.63;;;-1.71;62.97
35918;BME280;22011;59.912;30.300;2023-02-26T10:28:41;100197.25;;;-1.65;64.04
35918;BME280;22011;59.912;30.300;2023-02-26T10:31:17;100209.97;;;-1.73;62.78
35918;BME280;22011;59.912;30.300;2023-02-26T10:34:00;100213.31;;;-1.71;63.55
35918;BME280;22011;59.912;30.300;2023-02-26T10:36:41;100210.06;;;-1.74;63.90
35918;BME280;22011;59.912;30.300;2023-02-26T10:39:23;100222.28;;;-1.75;63.85
35918;BME280;22011;59.912;30.300;2023-02-26T10:41:54;100208.88;;;-1.83;63.27
35918;BME280;22011;59.912;30.300;2023-02-26T10:44:27;100213.81;;;-1.78;64.28
35918;BME280;22011;59.912;30.300;2023-02-26T10:47:03;100208.59;;;-1.78;64.72
35918;BME280;22011;59.912;30.300;2023-02-26T10:49:49;100216.66;;;-1.69;64.73
35918;BME280;22011;59.912;30.300;2023-02-26T10:52:22;100222.09;;;-1.72;63.70
35918;BME280;22011;59.912;30.300;2023-02-26T10:55:04;100211.88;;;-1.62;63.60
35918;BME280;22011;59.912;30.300;2023-02-26T10:57:35;100225.53;;;-1.71;62.50
35918;BME280;22011;59.912;30.300;2023-02-26T11:00:12;100229.19;;;-1.74;63.02
35918;BME280;22011;59.912;30.300;2023-02-26T11:02:44;100236.09;;;-1.73;63.45
35918;BME280;22011;59.912;30.300;2023-02-26T11:05:18;100221.16;;;-1.71;63.22
35918;BME280;22011;59.912;30.300;2023-02-26T11:07:49;100228.25;;;-1.73;63.10
35918;BME280;22011;59.912;30.300;2023-02-26T11:10:19;100233.56;;;-1.74;63.84
35918;BME280;22011;59.912;30.300;2023-02-26T11:12:48;100224.91;;;-1.75;63.51
35918;BME280;22011;59.912;30.300;2023-02-26T11:15:19;100230.13;;;-1.75;63.58
35918;BME280;22011;59.912;30.300;2023-02-26T11:17:52;100234.69;;;-1.78;64.79
35918;BME280;22011;59.912;30.300;2023-02-26T11:20:29;100238.59;;;-1.71;65.01
35918;BME280;22011;59.912;30.300;2023-02-26T11:23:01;100254.38;;;-1.73;64.70
35918;BME280;22011;59.912;30.300;2023-02-26T11:25:32;100275.78;;;-1.68;63.41
35918;BME280;22011;59.912;30.300;2023-02-26T11:28:02;100252.59;;;-1.72;63.96
35918;BME280;22011;59.912;30.300;2023-02-26T11:30:37;100269.09;;;-1.72;64.64
35918;BME280;22011;59.912;30.300;2023-02-26T11:33:15;100264.00;;;-1.60;64.04
35918;BME280;22011;59.912;30.300;2023-02-26T11:35:45;100269.75;;;-1.68;64.71
35918;BME280;22011;59.912;30.300;2023-02-26T11:38:20;100271.41;;;-1.67;64.52
35918;BME280;22011;59.912;30.300;2023-02-26T11:40:52;100275.78;;;-1.68;65.71
35918;BME280;22011;59.912;30.300;2023-02-26T11:43:22;100284.22;;;-1.77;65.81
35918;BME280;22011;59.912;30.300;2023-02-26T11:45:53;100279.09;;;-1.78;65.70
35918;BME280;22011;59.912;30.300;2023-02-26T11:48:24;100285.91;;;-1.76;65.45
35918;BME280;22011;59.912;30.300;2023-02-26T11:50:56;100281.97;;;-1.69;65.87
35918;BME280;22011;59.912;30.300;2023-02-26T11:53:25;100275.91;;;-1.69;65.98
35918;BME280;22011;59.912;30.300;2023-02-26T11:55:59;100284.78;;;-1.72;66.15
35918;BME280;22011;59.912;30.300;2023-02-26T11:58:31;100295.97;;;-1.70;65.92
35918;BME280;22011;59.912;30.300;2023-02-26T12:01:02;100296.50;;;-1.65;65.96
35918;BME280;22011;59.912;30.300;2023-02-26T12:03:32;100296.28;;;-1.61;66.20
35918;BME280;22011;59.912;30.300;2023-02-26T12:06:02;100298.72;;;-1.58;65.37
35918;BME280;22011;59.912;30.300;2023-02-26T12:08:33;100299.91;;;-1.50;65.08
35918;BME280;22011;59.912;30.300;2023-02-26T12:11:14;100313.41;;;-1.43;65.31
35918;BME280;22011;59.912;30.300;2023-02-26T12:13:59;100311.91;;;-1.47;66.02
35918;BME280;22011;59.912;30.300;2023-02-26T12:16:38;100326.41;;;-1.56;66.06
35918;BME280;22011;59.912;30.300;2023-02-26T12:19:15;100319.50;;;-1.57;66.06
35918;BME280;22011;59.912;30.300;2023-02-26T12:22:01;100321.34;;;-1.45;65.33
35918;BME280;22011;59.912;30.300;2023-02-26T12:24:44;100324.97;;;-1.47;65.48
35918;BME280;22011;59.912;30.300;2023-02-26T12:27:25;100326.84;;;-1.49;64.21
35918;BME280;22011;59.912;30.300;2023-02-26T12:30:06;100338.25;;;-1.50;64.50
35918;BME280;22011;59.912;30.300;2023-02-26T12:32:54;100330.41;;;-1.50;64.88
35918;BME280;22011;59.912;30.300;2023-02-26T12:35:42;100344.00;;;-1.45;64.15
35918;BME280;22011;59.912;30.300;2023-02-26T12:38:19;100338.97;;;-1.48;64.39
35918;BME280;22011;59.912;30.300;2023-02-26T12:43:52;100349.63;;;-1.51;64.21
35918;BME280;22011;59.912;30.300;2023-02-26T12:46:33;100361.47;;;-1.46;63.98
35918;BME280;22011;59.912;30.300;2023-02-26T12:52:14;100367.81;;;-1.50;63.74
35918;BME280;22011;59.912;30.300;2023-02-26T12:55:02;100373.31;;;-1.40;64.28
35918;BME280;22011;59.912;30.300;2023-02-26T12:57:56;100369.56;;;-1.36;63.10
35918;BME280;22011;59.912;30.300;2023-02-26T13:00:56;100369.94;;;-1.42;63.83
35918;BME280;22011;59.912;30.300;2023-02-26T13:03:38;100388.81;;;-1.51;63.61
35918;BME280;22011;59.912;30.300;2023-02-26T13:06:42;100384.97;;;-1.46;63.61
35918;BME280;22011;59.912;30.300;2023-02-26T13:09:21;100385.38;;;-1.52;63.11
35918;BME280;22011;59.912;30.300;2023-02-26T13:12:03;100406.09;;;-1.49;63.30
35918;BME280;22011;59.912;30.300;2023-02-26T13:14:46;100395.53;;;-1.47;63.38
35918;BME280;22011;59.912;30.300;2023-02-26T13:17:21;100398.16;;;-1.47;63.44